sensor_id;sensor_type;location;lat;lon;timestamp;P1;durP1;ratioP1;P2;durP2;ratioP2
52974;SDS011;38839;45.186;5.720;2023-03-18T00:02:08;7.35;;;1.20;;
52974;SDS011;38839;45.186;5.720;2023-03-18T00:04:34;4.22;;;1.10;;
52974;SDS011;38839;45.186;5.720;2023-03-18T00:07:01;2.85;;;1.20;;
52974;SDS011;38839;45.186;5.720;2023-03-18T00:09:27;6.38;;;0.93;;
52974;SDS011;38839;45.186;5.720;2023-03-18T00:11:53;3.05;;;1.10;;
52974;SDS011;38839;45.186;5.720;2023-03-18T00:14:20;4.88;;;1.40;;
52974;SDS011;38839;45.186;5.720;2023-03-18T00:16:46;2.75;;;1.20;;
52974;SDS011;38839;45.186;5.720;2023-03-18T00:19:12;4.35;;;1.25;;
52974;SDS011;38839;45.186;5.720;2023-03-18T00:21:38;3.28;;;0.88;;
52974;SDS011;38839;45.186;5.720;2023-03-18T00:24:03;3.83;;;1.23;;
52974;SDS011;38839;45.186;5.720;2023-03-18T00:26:29;3.60;;;1.00;;
52974;SDS011;38839;45.186;5.720;2023-03-18T00:28:55;5.88;;;1.38;;
52974;SDS011;38839;45.186;5.720;2023-03-18T00:31:22;2.88;;;1.13;;
52974;SDS011;38839;45.186;5.720;2023-03-18T00:33:47;4.28;;;1.50;;
52974;SDS011;38839;45.186;5.720;2023-03-18T00:36:14;3.13;;;1.27;;
52974;SDS011;38839;45.186;5.720;2023-03-18T00:38:43;5.05;;;1.33;;
52974;SDS011;38839;45.186;5.720;2023-03-18T00:41:10;2.83;;;1.10;;
52974;SDS011;38839;45.186;5.720;2023-03-18T00:43:45;3.97;;;1.02;;
52974;SDS011;38839;45.186;5.720;2023-03-18T00:46:25;4.32;;;1.10;;
52974;SDS011;38839;45.186;5.720;2023-03-18T00:48:59;3.17;;;0.93;;
52974;SDS011;38839;45.186;5.720;2023-03-18T00:51:27;6.35;;;1.10;;
52974;SDS011;38839;45.186;5.720;2023-03-18T00:53:55;2.30;;;1.20;;
52974;SDS011;38839;45.186;5.720;2023-03-18T00:56:24;5.72;;;1.10;;
52974;SDS011;38839;45.186;5.720;2023-03-18T00:58:51;2.58;;;1.25;;
52974;SDS011;38839;45.186;5.720;2023-03-18T01:01:18;4.63;;;1.27;;
52974;SDS011;38839;45.186;5.720;2023-03-18T01:03:44;1.90;;;1.10;;
52974;SDS011;38839;45.186;5.720;2023-03-18T01:06:13;4.32;;;1.90;;
52974;SDS011;38839;45.186;5.720;2023-03-18T01:08:42;3.13;;;1.30;;
52974;SDS011;38839;45.186;5.720;2023-03-18T01:11:08;2.67;;;1.00;;
52974;SDS011;38839;45.186;5.720;2023-03-18T01:13:34;3.22;;;1.30;;
52974;SDS011;38839;45.186;5.720;2023-03-18T01:16:01;2.63;;;1.13;;
52974;SDS011;38839;45.186;5.720;2023-03-18T01:18:27;3.08;;;1.00;;
52974;SDS011;38839;45.186;5.720;2023-03-18T01:20:54;4.70;;;1.27;;
52974;SDS011;38839;45.186;5.720;2023-03-18T01:23:19;4.60;;;1.35;;
52974;SDS011;38839;45.186;5.720;2023-03-18T01:25:45;3.40;;;1.52;;
52974;SDS011;38839;45.186;5.720;2023-03-18T01:28:11;4.10;;;1.27;;
52974;SDS011;38839;45.186;5.720;2023-03-18T01:30:37;5.18;;;1.15;;
52974;SDS011;38839;45.186;5.720;2023-03-18T01:33:03;3.35;;;1.27;;
52974;SDS011;38839;45.186;5.720;2023-03-18T01:35:30;3.33;;;1.15;;
52974;SDS011;38839;45.186;5.720;2023-03-18T01:37:56;3.22;;;1.50;;
52974;SDS011;38839;45.186;5.720;2023-03-18T01:40:23;4.15;;;1.15;;
52974;SDS011;38839;45.186;5.720;2023-03-18T01:42:56;7.38;;;1.45;;
52974;SDS011;38839;45.186;5.720;2023-03-18T01:45:27;3.90;;;1.20;;
52974;SDS011;38839;45.186;5.720;2023-03-18T01:47:54;4.32;;;1.30;;
52974;SDS011;38839;45.186;5.720;2023-03-18T01:50:21;4.22;;;1.10;;
52974;SDS011;38839;45.186;5.720;2023-03-18T01:52:52;5.93;;;1.13;;
52974;SDS011;38839;45.186;5.720;2023-03-18T01:55:21;3.83;;;1.17;;
52974;SDS011;38839;45.186;5.720;2023-03-18T01:57:49;3.25;;;1.25;;
52974;SDS011;38839;45.186;5.720;2023-03-18T02:00:15;4.03;;;1.60;;
52974;SDS011;38839;45.186;5.720;2023-03-18T02:02:44;3.28;;;1.20;;
52974;SDS011;38839;45.186;5.720;2023-03-18T02:05:13;1.98;;;1.00;;
52974;SDS011;38839;45.186;5.720;2023-03-18T02:07:41;1.80;;;1.15;;
52974;SDS011;38839;45.186;5.720;2023-03-18T02:10:10;4.00;;;1.10;;
52974;SDS011;38839;45.186;5.720;2023-03-18T02:12:40;4.90;;;1.45;;
52974;SDS011;38839;45.186;5.720;2023-03-18T02:15:10;2.53;;;1.13;;
52974;SDS011;38839;45.186;5.720;2023-03-18T02:17:41;2.65;;;1.10;;
52974;SDS011;38839;45.186;5.720;2023-03-18T02:25:54;5.28;;;1.40;;
52974;SDS011;38839;45.186;5.720;2023-03-18T02:28:48;5.32;;;1.85;;
52974;SDS011;38839;45.186;5.720;2023-03-18T02:31:15;5.28;;;1.10;;
52974;SDS011;38839;45.186;5.720;2023-03-18T02:33:42;4.38;;;1.50;;
52974;SDS011;38839;45.186;5.720;2023-03-18T02:36:17;3.53;;;1.40;;
52974;SDS011;38839;45.186;5.720;2023-03-18T02:38:46;5.05;;;1.30;;
52974;SDS011;38839;45.186;5.720;2023-03-18T02:41:19;4.32;;;1.42;;
52974;SDS011;38839;45.186;5.720;2023-03-18T02:43:47;6.68;;;1.70;;
52974;SDS011;38839;45.186;5.720;2023-03-18T02:49:13;7.07;;;1.45;;
52974;SDS011;38839;45.186;5.720;2023-03-18T02:51:41;3.80;;;1.30;;
52974;SDS011;38839;45.186;5.720;2023-03-18T02:54:10;4.80;;;1.50;;
52974;SDS011;38839;45.186;5.720;2023-03-18T02:56:40;2.60;;;1.30;;
52974;SDS011;38839;45.186;5.720;2023-03-18T02:59:08;5.72;;;1.70;;
52974;SDS011;38839;45.186;5.720;2023-03-18T03:01:34;2.35;;;1.25;;
52974;SDS011;38839;45.186;5.720;2023-03-18T03:04:01;5.80;;;1.40;;
52974;SDS011;38839;45.186;5.720;2023-03-18T03:06:28;6.80;;;2.92;;
52974;SDS011;38839;45.186;5.720;2023-03-18T03:08:54;3.90;;;1.50;;
52974;SDS011;38839;45.186;5.720;2023-03-18T03:11:20;5.75;;;1.65;;
52974;SDS011;38839;45.186;5.720;2023-03-18T03:13:46;3.58;;;1.30;;
52974;SDS011;38839;45.186;5.720;2023-03-18T03:16:12;4.25;;;1.55;;
52974;SDS011;38839;45.186;5.720;2023-03-18T03:18:39;3.65;;;1.27;;
52974;SDS011;38839;45.186;5.720;2023-03-18T03:21:06;6.05;;;1.55;;
52974;SDS011;38839;45.186;5.720;2023-03-18T03:23:32;6.28;;;1.60;;
52974;SDS011;38839;45.186;5.720;2023-03-18T03:25:58;2.85;;;1.40;;
52974;SDS011;38839;45.186;5.720;2023-03-18T03:28:23;5.70;;;1.50;;
52974;SDS011;38839;45.186;5.720;2023-03-18T03:30:49;6.13;;;1.23;;
52974;SDS011;38839;45.186;5.720;2023-03-18T03:33:15;4.22;;;1.30;;
52974;SDS011;38839;45.186;5.720;2023-03-18T03:35:40;5.07;;;1.50;;
52974;SDS011;38839;45.186;5.720;2023-03-18T03:38:06;2.28;;;1.13;;
52974;SDS011;38839;45.186;5.720;2023-03-18T03:40:32;4.72;;;1.50;;
52974;SDS011;38839;45.186;5.720;2023-03-18T03:42:58;4.85;;;2.20;;
52974;SDS011;38839;45.186;5.720;2023-03-18T03:45:23;3.53;;;2.35;;
52974;SDS011;38839;45.186;5.720;2023-03-18T03:47:49;2.40;;;1.30;;
52974;SDS011;38839;45.186;5.720;2023-03-18T03:50:15;5.88;;;1.77;;
52974;SDS011;38839;45.186;5.720;2023-03-18T03:52:42;4.22;;;1.20;;
52974;SDS011;38839;45.186;5.720;2023-03-18T03:55:09;4.70;;;2.15;;
52974;SDS011;38839;45.186;5.720;2023-03-18T03:57:36;6.13;;;2.10;;
52974;SDS011;38839;45.186;5.720;2023-03-18T04:00:06;3.10;;;1.25;;
52974;SDS011;38839;45.186;5.720;2023-03-18T04:02:37;5.68;;;1.20;;
52974;SDS011;38839;45.186;5.720;2023-03-18T04:05:03;2.30;;;1.35;;
52974;SDS011;38839;45.186;5.720;2023-03-18T04:07:29;3.35;;;1.40;;
52974;SDS011;38839;45.186;5.720;2023-03-18T04:09:55;3.17;;;1.30;;
52974;SDS011;38839;45.186;5.720;2023-03-18T04:12:20;2.08;;;1.50;;
52974;SDS011;38839;45.186;5.720;2023-03-18T04:14:46;5.68;;;1.60;;
52974;SDS011;38839;45.186;5.720;2023-03-18T04:17:12;3.72;;;1.40;;
52974;SDS011;38839;45.186;5.720;2023-03-18T04:19:38;6.07;;;1.40;;
52974;SDS011;38839;45.186;5.720;2023-03-18T04:22:04;3.13;;;1.30;;
52974;SDS011;38839;45.186;5.720;2023-03-18T04:24:30;4.93;;;1.50;;
52974;SDS011;38839;45.186;5.720;2023-03-18T04:26:55;1.92;;;1.20;;
52974;SDS011;38839;45.186;5.720;2023-03-18T04:29:21;5.50;;;1.50;;
52974;SDS011;38839;45.186;5.720;2023-03-18T04:31:48;3.78;;;1.70;;
52974;SDS011;38839;45.186;5.720;2023-03-18T04:34:13;5.18;;;1.33;;
52974;SDS011;38839;45.186;5.720;2023-03-18T04:36:38;3.25;;;1.48;;
52974;SDS011;38839;45.186;5.720;2023-03-18T04:39:04;3.83;;;1.38;;
52974;SDS011;38839;45.186;5.720;2023-03-18T04:41:30;3.50;;;1.27;;
52974;SDS011;38839;45.186;5.720;2023-03-18T04:43:55;4.55;;;1.33;;
52974;SDS011;38839;45.186;5.720;2023-03-18T04:46:21;4.22;;;1.30;;
52974;SDS011;38839;45.186;5.720;2023-03-18T04:48:47;1.67;;;1.13;;
52974;SDS011;38839;45.186;5.720;2023-03-18T04:51:12;3.72;;;1.30;;
52974;SDS011;38839;45.186;5.720;2023-03-18T04:53:38;3.17;;;1.40;;
52974;SDS011;38839;45.186;5.720;2023-03-18T04:56:04;3.78;;;1.35;;
52974;SDS011;38839;45.186;5.720;2023-03-18T04:58:30;2.10;;;1.20;;
52974;SDS011;38839;45.186;5.720;2023-03-18T05:00:55;3.85;;;1.20;;
52974;SDS011;38839;45.186;5.720;2023-03-18T05:03:21;2.55;;;1.58;;
52974;SDS011;38839;45.186;5.720;2023-03-18T05:05:47;2.55;;;1.40;;
52974;SDS011;38839;45.186;5.720;2023-03-18T05:08:13;4.30;;;1.67;;
52974;SDS011;38839;45.186;5.720;2023-03-18T05:10:39;4.32;;;1.45;;
52974;SDS011;38839;45.186;5.720;2023-03-18T05:13:05;2.55;;;1.45;;
52974;SDS011;38839;45.186;5.720;2023-03-18T05:15:31;5.80;;;1.52;;
52974;SDS011;38839;45.186;5.720;2023-03-18T05:17:58;4.35;;;1.27;;
52974;SDS011;38839;45.186;5.720;2023-03-18T05:20:23;4.93;;;1.30;;
52974;SDS011;38839;45.186;5.720;2023-03-18T05:22:49;4.57;;;1.50;;
52974;SDS011;38839;45.186;5.720;2023-03-18T05:25:14;3.92;;;1.42;;
52974;SDS011;38839;45.186;5.720;2023-03-18T05:27:40;3.80;;;1.70;;
52974;SDS011;38839;45.186;5.720;2023-03-18T05:30:06;3.88;;;1.80;;
52974;SDS011;38839;45.186;5.720;2023-03-18T05:32:33;4.20;;;1.42;;
52974;SDS011;38839;45.186;5.720;2023-03-18T05:34:58;2.13;;;1.15;;
52974;SDS011;38839;45.186;5.720;2023-03-18T05:37:24;4.03;;;1.55;;
52974;SDS011;38839;45.186;5.720;2023-03-18T05:39:50;3.67;;;1.70;;
52974;SDS011;38839;45.186;5.720;2023-03-18T05:42:15;4.85;;;1.75;;
52974;SDS011;38839;45.186;5.720;2023-03-18T05:44:40;4.10;;;1.90;;
52974;SDS011;38839;45.186;5.720;2023-03-18T05:47:06;5.93;;;1.60;;
52974;SDS011;38839;45.186;5.720;2023-03-18T05:49:33;3.20;;;1.30;;
52974;SDS011;38839;45.186;5.720;2023-03-18T05:51:59;3.47;;;1.23;;
52974;SDS011;38839;45.186;5.720;2023-03-18T05:54:25;2.92;;;1.42;;
52974;SDS011;38839;45.186;5.720;2023-03-18T05:56:50;2.47;;;1.10;;
52974;SDS011;38839;45.186;5.720;2023-03-18T05:59:17;2.83;;;1.15;;
52974;SDS011;38839;45.186;5.720;2023-03-18T06:01:43;5.82;;;1.67;;
52974;SDS011;38839;45.186;5.720;2023-03-18T06:04:09;3.60;;;1.50;;
52974;SDS011;38839;45.186;5.720;2023-03-18T06:06:35;6.10;;;1.55;;
52974;SDS011;38839;45.186;5.720;2023-03-18T06:09:04;2.73;;;1.17;;
52974;SDS011;38839;45.186;5.720;2023-03-18T06:11:31;3.65;;;1.33;;
52974;SDS011;38839;45.186;5.720;2023-03-18T06:13:56;2.78;;;1.40;;
52974;SDS011;38839;45.186;5.720;2023-03-18T06:16:22;5.60;;;1.50;;
52974;SDS011;38839;45.186;5.720;2023-03-18T06:18:47;4.82;;;1.73;;
52974;SDS011;38839;45.186;5.720;2023-03-18T06:21:13;3.38;;;1.48;;
52974;SDS011;38839;45.186;5.720;2023-03-18T06:23:39;4.90;;;1.52;;
52974;SDS011;38839;45.186;5.720;2023-03-18T06:26:04;4.65;;;1.80;;
52974;SDS011;38839;45.186;5.720;2023-03-18T06:28:31;3.05;;;1.52;;
52974;SDS011;38839;45.186;5.720;2023-03-18T06:30:57;2.08;;;1.42;;
52974;SDS011;38839;45.186;5.720;2023-03-18T06:33:23;2.95;;;1.42;;
52974;SDS011;38839;45.186;5.720;2023-03-18T06:35:49;9.00;;;1.60;;
52974;SDS011;38839;45.186;5.720;2023-03-18T06:38:16;2.67;;;1.38;;
52974;SDS011;38839;45.186;5.720;2023-03-18T06:40:42;2.97;;;1.45;;
52974;SDS011;38839;45.186;5.720;2023-03-18T06:43:08;3.40;;;1.40;;
52974;SDS011;38839;45.186;5.720;2023-03-18T06:45:35;4.80;;;1.60;;
52974;SDS011;38839;45.186;5.720;2023-03-18T06:48:01;6.40;;;1.50;;
52974;SDS011;38839;45.186;5.720;2023-03-18T06:50:27;3.72;;;1.48;;
52974;SDS011;38839;45.186;5.720;2023-03-18T06:52:53;4.38;;;1.70;;
52974;SDS011;38839;45.186;5.720;2023-03-18T06:55:18;3.42;;;1.38;;
52974;SDS011;38839;45.186;5.720;2023-03-18T06:57:44;5.47;;;2.00;;
52974;SDS011;38839;45.186;5.720;2023-03-18T07:00:11;3.65;;;1.52;;
52974;SDS011;38839;45.186;5.720;2023-03-18T07:02:37;6.07;;;1.75;;
52974;SDS011;38839;45.186;5.720;2023-03-18T07:05:03;5.03;;;1.63;;
52974;SDS011;38839;45.186;5.720;2023-03-18T07:07:29;3.58;;;1.90;;
52974;SDS011;38839;45.186;5.720;2023-03-18T07:09:54;3.42;;;1.83;;
52974;SDS011;38839;45.186;5.720;2023-03-18T07:12:20;4.53;;;1.67;;
52974;SDS011;38839;45.186;5.720;2023-03-18T07:14:45;4.85;;;1.73;;
52974;SDS011;38839;45.186;5.720;2023-03-18T07:17:11;4.47;;;1.17;;
52974;SDS011;38839;45.186;5.720;2023-03-18T07:19:36;3.67;;;1.50;;
52974;SDS011;38839;45.186;5.720;2023-03-18T07:22:02;4.38;;;1.27;;
52974;SDS011;38839;45.186;5.720;2023-03-18T07:24:28;1.85;;;1.23;;
52974;SDS011;38839;45.186;5.720;2023-03-18T07:26:55;3.60;;;1.60;;
52974;SDS011;38839;45.186;5.720;2023-03-18T07:29:20;2.97;;;1.42;;
52974;SDS011;38839;45.186;5.720;2023-03-18T07:31:46;2.90;;;1.60;;
52974;SDS011;38839;45.186;5.720;2023-03-18T07:34:12;2.60;;;1.40;;
52974;SDS011;38839;45.186;5.720;2023-03-18T07:36:38;4.30;;;1.50;;
52974;SDS011;38839;45.186;5.720;2023-03-18T07:39:05;3.35;;;1.67;;
52974;SDS011;38839;45.186;5.720;2023-03-18T07:41:31;4.28;;;1.48;;
52974;SDS011;38839;45.186;5.720;2023-03-18T07:43:56;5.10;;;1.60;;
52974;SDS011;38839;45.186;5.720;2023-03-18T07:46:21;3.70;;;2.15;;
52974;SDS011;38839;45.186;5.720;2023-03-18T07:48:47;7.57;;;2.53;;
52974;SDS011;38839;45.186;5.720;2023-03-18T07:51:13;4.60;;;1.70;;
52974;SDS011;38839;45.186;5.720;2023-03-18T07:53:39;4.25;;;1.63;;
52974;SDS011;38839;45.186;5.720;2023-03-18T07:56:06;2.45;;;1.58;;
52974;SDS011;38839;45.186;5.720;2023-03-18T07:58:34;4.78;;;1.73;;
52974;SDS011;38839;45.186;5.720;2023-03-18T08:01:00;3.67;;;1.75;;
52974;SDS011;38839;45.186;5.720;2023-03-18T08:03:26;2.78;;;1.65;;
52974;SDS011;38839;45.186;5.720;2023-03-18T08:05:52;3.03;;;1.67;;
52974;SDS011;38839;45.186;5.720;2023-03-18T08:08:17;6.15;;;2.10;;
52974;SDS011;38839;45.186;5.720;2023-03-18T08:10:42;4.40;;;2.10;;
52974;SDS011;38839;45.186;5.720;2023-03-18T08:13:08;5.35;;;1.67;;
52974;SDS011;38839;45.186;5.720;2023-03-18T08:15:33;6.25;;;1.85;;
52974;SDS011;38839;45.186;5.720;2023-03-18T08:17:59;5.38;;;2.15;;
52974;SDS011;38839;45.186;5.720;2023-03-18T08:20:24;6.30;;;1.90;;
52974;SDS011;38839;45.186;5.720;2023-03-18T08:22:51;5.55;;;2.15;;
52974;SDS011;38839;45.186;5.720;2023-03-18T08:25:17;4.72;;;2.10;;
52974;SDS011;38839;45.186;5.720;2023-03-18T08:27:43;10.50;;;2.92;;
52974;SDS011;38839;45.186;5.720;2023-03-18T08:30:08;6.35;;;2.20;;
52974;SDS011;38839;45.186;5.720;2023-03-18T08:32:35;5.20;;;2.40;;
52974;SDS011;38839;45.186;5.720;2023-03-18T08:35:01;3.40;;;2.47;;
52974;SDS011;38839;45.186;5.720;2023-03-18T08:37:27;5.18;;;2.65;;
52974;SDS011;38839;45.186;5.720;2023-03-18T08:39:52;4.57;;;2.00;;
52974;SDS011;38839;45.186;5.720;2023-03-18T08:42:18;4.50;;;2.30;;
52974;SDS011;38839;45.186;5.720;2023-03-18T08:44:44;10.77;;;2.97;;
52974;SDS011;38839;45.186;5.720;2023-03-18T08:47:09;4.40;;;2.85;;
52974;SDS011;38839;45.186;5.720;2023-03-18T08:49:35;4.22;;;3.00;;
52974;SDS011;38839;45.186;5.720;2023-03-18T08:52:00;5.47;;;3.03;;
52974;SDS011;38839;45.186;5.720;2023-03-18T08:54:26;8.90;;;3.10;;
52974;SDS011;38839;45.186;5.720;2023-03-18T08:56:52;4.32;;;2.95;;
52974;SDS011;38839;45.186;5.720;2023-03-18T08:59:19;6.38;;;3.25;;
52974;SDS011;38839;45.186;5.720;2023-03-18T09:01:45;7.57;;;3.60;;
52974;SDS011;38839;45.186;5.720;2023-03-18T09:04:11;7.47;;;3.83;;
52974;SDS011;38839;45.186;5.720;2023-03-18T09:06:37;5.93;;;3.63;;
52974;SDS011;38839;45.186;5.720;2023-03-18T09:09:02;8.40;;;3.58;;
52974;SDS011;38839;45.186;5.720;2023-03-18T09:11:28;8.30;;;4.63;;
52974;SDS011;38839;45.186;5.720;2023-03-18T09:13:53;8.50;;;4.22;;
52974;SDS011;38839;45.186;5.720;2023-03-18T09:16:19;9.80;;;4.82;;
52974;SDS011;38839;45.186;5.720;2023-03-18T09:18:45;9.10;;;4.68;;
52974;SDS011;38839;45.186;5.720;2023-03-18T09:21:10;8.65;;;4.63;;
52974;SDS011;38839;45.186;5.720;2023-03-18T09:23:36;9.48;;;4.80;;
52974;SDS011;38839;45.186;5.720;2023-03-18T09:26:01;8.93;;;5.00;;
52974;SDS011;38839;45.186;5.720;2023-03-18T09:28:27;10.43;;;5.40;;
52974;SDS011;38839;45.186;5.720;2023-03-18T09:30:53;10.43;;;5.65;;
52974;SDS011;38839;45.186;5.720;2023-03-18T09:33:19;12.07;;;5.28;;
52974;SDS011;38839;45.186;5.720;2023-03-18T09:35:46;11.98;;;5.72;;
52974;SDS011;38839;45.186;5.720;2023-03-18T09:38:16;10.05;;;5.07;;
52974;SDS011;38839;45.186;5.720;2023-03-18T09:40:53;10.82;;;5.82;;
52974;SDS011;38839;45.186;5.720;2023-03-18T09:46:20;11.98;;;5.30;;
52974;SDS011;38839;45.186;5.720;2023-03-18T09:49:01;10.68;;;5.85;;
52974;SDS011;38839;45.186;5.720;2023-03-18T09:56:49;12.32;;;6.90;;
52974;SDS011;38839;45.186;5.720;2023-03-18T09:59:18;11.02;;;6.35;;
52974;SDS011;38839;45.186;5.720;2023-03-18T10:02:01;10.90;;;6.63;;
52974;SDS011;38839;45.186;5.720;2023-03-18T10:04:35;12.15;;;6.88;;
52974;SDS011;38839;45.186;5.720;2023-03-18T10:07:12;15.10;;;7.32;;
52974;SDS011;38839;45.186;5.720;2023-03-18T10:09:42;14.85;;;7.97;;
52974;SDS011;38839;45.186;5.720;2023-03-18T10:12:14;10.38;;;6.65;;
52974;SDS011;38839;45.186;5.720;2023-03-18T10:14:49;11.30;;;7.28;;
52974;SDS011;38839;45.186;5.720;2023-03-18T10:17:26;13.00;;;7.05;;
52974;SDS011;38839;45.186;5.720;2023-03-18T10:20:02;10.40;;;6.53;;
52974;SDS011;38839;45.186;5.720;2023-03-18T10:38:22;11.55;;;6.95;;
52974;SDS011;38839;45.186;5.720;2023-03-18T10:43:26;12.88;;;6.93;;
52974;SDS011;38839;45.186;5.720;2023-03-18T10:48:33;12.80;;;7.40;;
52974;SDS011;38839;45.186;5.720;2023-03-18T10:53:56;13.50;;;6.95;;
52974;SDS011;38839;45.186;5.720;2023-03-18T10:56:27;10.55;;;6.35;;
52974;SDS011;38839;45.186;5.720;2023-03-18T10:58:53;11.30;;;6.50;;
52974;SDS011;38839;45.186;5.720;2023-03-18T11:01:20;12.60;;;6.65;;
52974;SDS011;38839;45.186;5.720;2023-03-18T11:03:52;12.83;;;6.77;;
52974;SDS011;38839;45.186;5.720;2023-03-18T11:06:34;13.27;;;6.85;;
52974;SDS011;38839;45.186;5.720;2023-03-18T11:09:09;12.63;;;6.88;;
52974;SDS011;38839;45.186;5.720;2023-03-18T11:11:41;12.45;;;7.55;;
52974;SDS011;38839;45.186;5.720;2023-03-18T11:14:11;10.98;;;6.57;;
52974;SDS011;38839;45.186;5.720;2023-03-18T11:16:48;12.55;;;7.05;;
52974;SDS011;38839;45.186;5.720;2023-03-18T11:24:34;12.98;;;7.38;;
52974;SDS011;38839;45.186;5.720;2023-03-18T11:27:10;13.57;;;7.50;;
52974;SDS011;38839;45.186;5.720;2023-03-18T11:29:58;13.82;;;7.38;;
52974;SDS011;38839;45.186;5.720;2023-03-18T11:32:28;16.58;;;7.30;;
52974;SDS011;38839;45.186;5.720;2023-03-18T11:34:59;11.73;;;6.88;;
52974;SDS011;38839;45.186;5.720;2023-03-18T11:37:33;14.23;;;7.03;;
52974;SDS011;38839;45.186;5.720;2023-03-18T11:42:58;12.48;;;7.10;;
52974;SDS011;38839;45.186;5.720;2023-03-18T11:46:07;13.00;;;7.18;;
52974;SDS011;38839;45.186;5.720;2023-03-18T11:48:35;12.20;;;6.70;;
52974;SDS011;38839;45.186;5.720;2023-03-18T12:24:22;11.60;;;7.05;;
52974;SDS011;38839;45.186;5.720;2023-03-18T12:27:18;10.52;;;6.57;;
52974;SDS011;38839;45.186;5.720;2023-03-18T12:32:32;10.50;;;6.50;;
52974;SDS011;38839;45.186;5.720;2023-03-18T12:35:16;10.18;;;6.38;;
52974;SDS011;38839;45.186;5.720;2023-03-18T12:40:59;12.75;;;6.30;;
52974;SDS011;38839;45.186;5.720;2023-03-18T12:43:39;11.48;;;6.07;;
52974;SDS011;38839;45.186;5.720;2023-03-18T12:46:18;12.45;;;6.13;;
52974;SDS011;38839;45.186;5.720;2023-03-18T12:48:57;12.32;;;6.68;;
52974;SDS011;38839;45.186;5.720;2023-03-18T12:51:27;14.63;;;6.72;;
52974;SDS011;38839;45.186;5.720;2023-03-18T12:53:57;10.13;;;5.95;;
52974;SDS011;38839;45.186;5.720;2023-03-18T12:56:34;10.38;;;6.00;;
52974;SDS011;38839;45.186;5.720;2023-03-18T12:59:09;10.80;;;6.80;;
52974;SDS011;38839;45.186;5.720;2023-03-18T13:01:43;10.82;;;6.00;;
52974;SDS011;38839;45.186;5.720;2023-03-18T13:04:18;11.75;;;6.38;;
52974;SDS011;38839;45.186;5.720;2023-03-18T13:09:46;11.43;;;5.72;;
52974;SDS011;38839;45.186;5.720;2023-03-18T13:12:22;10.10;;;6.22;;
52974;SDS011;38839;45.186;5.720;2023-03-18T13:15:05;8.80;;;5.93;;
52974;SDS011;38839;45.186;5.720;2023-03-18T13:17:42;11.93;;;5.93;;
52974;SDS011;38839;45.186;5.720;2023-03-18T13:20:17;9.85;;;5.65;;
52974;SDS011;38839;45.186;5.720;2023-03-18T13:28:35;11.15;;;6.03;;
52974;SDS011;38839;45.186;5.720;2023-03-18T13:31:19;10.45;;;6.40;;
52974;SDS011;38839;45.186;5.720;2023-03-18T13:42:54;9.05;;;6.20;;
52974;SDS011;38839;45.186;5.720;2023-03-18T13:45:25;10.05;;;5.90;;
52974;SDS011;38839;45.186;5.720;2023-03-18T13:47:59;10.93;;;5.78;;
52974;SDS011;38839;45.186;5.720;2023-03-18T13:50:31;11.73;;;5.45;;
52974;SDS011;38839;45.186;5.720;2023-03-18T13:53:03;9.20;;;5.68;;
52974;SDS011;38839;45.186;5.720;2023-03-18T14:00:40;11.32;;;6.13;;
52974;SDS011;38839;45.186;5.720;2023-03-18T14:03:13;9.30;;;5.47;;
52974;SDS011;38839;45.186;5.720;2023-03-18T14:05:41;9.05;;;5.75;;
52974;SDS011;38839;45.186;5.720;2023-03-18T14:13:52;10.23;;;5.45;;
52974;SDS011;38839;45.186;5.720;2023-03-18T14:16:27;8.52;;;5.63;;
52974;SDS011;38839;45.186;5.720;2023-03-18T14:18:59;13.20;;;5.78;;
52974;SDS011;38839;45.186;5.720;2023-03-18T14:21:30;9.02;;;5.15;;
52974;SDS011;38839;45.186;5.720;2023-03-18T14:24:01;12.15;;;6.30;;
52974;SDS011;38839;45.186;5.720;2023-03-18T14:26:35;11.60;;;6.15;;
52974;SDS011;38839;45.186;5.720;2023-03-18T14:37:04;11.88;;;6.10;;
52974;SDS011;38839;45.186;5.720;2023-03-18T14:39:41;10.95;;;5.63;;
52974;SDS011;38839;45.186;5.720;2023-03-18T14:44:49;9.73;;;5.68;;
52974;SDS011;38839;45.186;5.720;2023-03-18T14:47:19;10.45;;;6.22;;
52974;SDS011;38839;45.186;5.720;2023-03-18T14:49:51;9.07;;;5.50;;
52974;SDS011;38839;45.186;5.720;2023-03-18T14:52:28;10.18;;;5.13;;
52974;SDS011;38839;45.186;5.720;2023-03-18T14:54:58;8.38;;;4.93;;
52974;SDS011;38839;45.186;5.720;2023-03-18T14:57:29;9.23;;;5.60;;
52974;SDS011;38839;45.186;5.720;2023-03-18T14:59:54;14.25;;;5.90;;
52974;SDS011;38839;45.186;5.720;2023-03-18T15:02:31;8.85;;;5.03;;
52974;SDS011;38839;45.186;5.720;2023-03-18T15:04:59;9.75;;;5.50;;
52974;SDS011;38839;45.186;5.720;2023-03-18T15:07:30;9.43;;;5.68;;
52974;SDS011;38839;45.186;5.720;2023-03-18T15:10:00;8.45;;;4.90;;
52974;SDS011;38839;45.186;5.720;2023-03-18T15:14:54;11.00;;;5.50;;
52974;SDS011;38839;45.186;5.720;2023-03-18T15:17:20;11.13;;;5.72;;
52974;SDS011;38839;45.186;5.720;2023-03-18T15:19:54;9.20;;;5.15;;
52974;SDS011;38839;45.186;5.720;2023-03-18T15:22:23;10.10;;;5.28;;
52974;SDS011;38839;45.186;5.720;2023-03-18T15:25:03;9.07;;;5.07;;
52974;SDS011;38839;45.186;5.720;2023-03-18T15:27:32;10.35;;;5.18;;
52974;SDS011;38839;45.186;5.720;2023-03-18T15:30:00;8.30;;;5.15;;
52974;SDS011;38839;45.186;5.720;2023-03-18T15:32:41;8.90;;;5.30;;
52974;SDS011;38839;45.186;5.720;2023-03-18T15:37:43;9.88;;;5.28;;
52974;SDS011;38839;45.186;5.720;2023-03-18T15:45:18;8.38;;;4.57;;
52974;SDS011;38839;45.186;5.720;2023-03-18T15:47:45;9.75;;;4.60;;
52974;SDS011;38839;45.186;5.720;2023-03-18T15:52:43;9.80;;;5.18;;
52974;SDS011;38839;45.186;5.720;2023-03-18T15:57:56;9.45;;;4.43;;
52974;SDS011;38839;45.186;5.720;2023-03-18T16:00:22;7.97;;;4.68;;
52974;SDS011;38839;45.186;5.720;2023-03-18T16:02:48;8.70;;;4.63;;
52974;SDS011;38839;45.186;5.720;2023-03-18T16:05:24;6.85;;;4.13;;
52974;SDS011;38839;45.186;5.720;2023-03-18T16:07:52;8.23;;;4.05;;
52974;SDS011;38839;45.186;5.720;2023-03-18T16:10:19;7.30;;;4.20;;
52974;SDS011;38839;45.186;5.720;2023-03-18T16:12:47;8.57;;;4.10;;
52974;SDS011;38839;45.186;5.720;2023-03-18T16:15:17;8.18;;;4.15;;
52974;SDS011;38839;45.186;5.720;2023-03-18T16:17:49;10.05;;;4.03;;
52974;SDS011;38839;45.186;5.720;2023-03-18T16:20:18;7.30;;;3.83;;
52974;SDS011;38839;45.186;5.720;2023-03-18T16:22:48;7.78;;;4.05;;
52974;SDS011;38839;45.186;5.720;2023-03-18T16:25:14;8.38;;;4.30;;
52974;SDS011;38839;45.186;5.720;2023-03-18T16:27:42;7.85;;;4.10;;
52974;SDS011;38839;45.186;5.720;2023-03-18T16:32:44;7.35;;;3.83;;
52974;SDS011;38839;45.186;5.720;2023-03-18T16:35:16;7.68;;;4.15;;
52974;SDS011;38839;45.186;5.720;2023-03-18T16:37:44;8.68;;;3.90;;
52974;SDS011;38839;45.186;5.720;2023-03-18T16:40:15;10.10;;;3.80;;
52974;SDS011;38839;45.186;5.720;2023-03-18T16:42:43;8.82;;;4.47;;
52974;SDS011;38839;45.186;5.720;2023-03-18T16:45:13;6.32;;;3.65;;
52974;SDS011;38839;45.186;5.720;2023-03-18T16:47:40;7.18;;;3.78;;
52974;SDS011;38839;45.186;5.720;2023-03-18T16:50:18;6.18;;;3.45;;
52974;SDS011;38839;45.186;5.720;2023-03-18T16:52:46;7.47;;;3.53;;
52974;SDS011;38839;45.186;5.720;2023-03-18T16:55:13;6.20;;;3.20;;
52974;SDS011;38839;45.186;5.720;2023-03-18T16:57:43;7.40;;;4.25;;
52974;SDS011;38839;45.186;5.720;2023-03-18T17:00:16;8.00;;;3.88;;
52974;SDS011;38839;45.186;5.720;2023-03-18T17:02:46;6.57;;;3.50;;
52974;SDS011;38839;45.186;5.720;2023-03-18T17:05:13;6.05;;;3.20;;
52974;SDS011;38839;45.186;5.720;2023-03-18T17:07:40;9.00;;;3.30;;
52974;SDS011;38839;45.186;5.720;2023-03-18T17:10:07;7.88;;;3.95;;
52974;SDS011;38839;45.186;5.720;2023-03-18T17:12:34;6.78;;;4.00;;
52974;SDS011;38839;45.186;5.720;2023-03-18T17:15:00;6.55;;;3.88;;
52974;SDS011;38839;45.186;5.720;2023-03-18T17:17:27;7.25;;;3.38;;
52974;SDS011;38839;45.186;5.720;2023-03-18T17:19:59;10.50;;;3.97;;